Time;durP1;ratioP1;P1;durP2;ratioP2;P2;SDS_P1;SDS_P2;PMS_P1;PMS_P2;Temp;Humidity;BMP_temperature;BMP_pressure;BME280_temperature;BME280_humidity;BME280_pressure;Samples;Min_cycle;Max_cycle;Signal;HPM_P1;HPM_P2
2022/11/01 00:00:04;;;;;;;10.10;4.63;;;;;;;14.17;100.00;100845.00;5075979;28;20302;-35
2022/11/01 00:02:29;;;;;;;11.90;4.60;;;;;;;14.23;100.00;100848.59;5075682;28;20029;-36
2022/11/01 00:04:55;;;;;;;10.80;5.10;;;;;;;14.26;100.00;100839.13;5075700;28;20044;-35
2022/11/01 00:07:20;;;;;;;9.10;5.30;;;;;;;14.20;100.00;100832.81;5075613;28;20358;-34
2022/11/01 00:09:45;;;;;;;9.48;5.25;;;;;;;14.29;100.00;100835.88;5075140;28;20044;-34
2022/11/01 00:12:11;;;;;;;12.47;4.30;;;;;;;14.28;100.00;100835.06;5075545;28;20056;-34
2022/11/01 00:14:36;;;;;;;13.53;5.63;;;;;;;14.30;100.00;100832.06;5075691;28;20294;-34
2022/11/01 00:17:01;;;;;;;;;;;;;;;14.33;100.00;100831.56;5075807;28;20020;-33
2022/11/01 00:19:27;;;;;;;10.43;4.97;;;;;;;14.20;100.00;100802.03;5075637;28;19917;-34
2022/11/01 00:21:52;;;;;;;12.57;4.50;;;;;;;14.31;100.00;100801.09;5075364;28;20282;-35
2022/11/01 00:24:17;;;;;;;10.38;4.80;;;;;;;14.38;100.00;100805.22;5075000;28;20043;-34
2022/11/01 00:26:43;;;;;;;10.33;4.97;;;;;;;14.46;100.00;100812.13;5075620;28;20038;-34
2022/11/01 00:29:09;;;;;;;9.82;5.50;;;;;;;14.48;100.00;100815.41;5075132;28;20107;-35
2022/11/01 00:31:35;;;;;;;12.63;4.90;;;;;;;14.53;100.00;100820.91;5075176;28;20468;-35
2022/11/01 00:34:02;;;;;;;7.80;4.70;;;;;;;14.60;100.00;100818.81;5075906;28;20103;-35
2022/11/01 00:36:28;;;;;;;8.43;3.97;;;;;;;14.77;100.00;100815.13;5075685;28;20020;-35
2022/11/01 00:38:53;;;;;;;9.15;3.88;;;;;;;14.79;100.00;100796.66;5074980;28;20108;-35
2022/11/01 00:41:22;;;;;;;9.95;3.72;;;;;;;14.96;100.00;100805.50;5075231;28;20111;-35
2022/11/01 00:43:48;;;;;;;9.70;4.30;;;;;;;15.12;100.00;100796.34;5074887;28;20024;-35
2022/11/01 00:46:13;;;;;;;;;;;;;;;15.16;100.00;100807.53;5075529;28;20024;-35
2022/11/01 00:48:39;;;;;;;8.43;3.75;;;;;;;15.26;100.00;100801.34;5074579;28;19999;-35
2022/11/01 00:51:04;;;;;;;;;;;;;;;15.30;100.00;100802.47;5075099;28;20522;-35
2022/11/01 00:53:29;;;;;;;7.73;3.73;;;;;;;15.36;100.00;100804.94;5074634;28;19908;-35
2022/11/01 00:56:02;;;;;;;8.38;3.78;;;;;;;15.33;100.00;100801.94;5074698;28;20273;-35
2022/11/01 00:58:27;;;;;;;7.07;3.65;;;;;;;15.28;100.00;100793.75;5075166;28;20040;-35
2022/11/01 01:00:53;;;;;;;7.50;3.47;;;;;;;15.32;100.00;100789.38;5074467;28;20021;-35
2022/11/01 01:03:18;;;;;;;;;;;;;;;15.33;100.00;100786.41;5075200;28;20032;-35
2022/11/01 01:05:43;;;;;;;6.53;2.80;;;;;;;15.37;100.00;100783.97;5074626;28;19958;-35
2022/11/01 01:08:08;;;;;;;;;;;;;;;15.40;100.00;100788.88;5075283;28;20106;-35
2022/11/01 01:10:34;;;;;;;11.43;3.97;;;;;;;15.40;100.00;100786.16;5074318;28;19966;-35
2022/11/01 01:13:00;;;;;;;6.82;3.20;;;;;;;15.45;100.00;100792.47;5074291;28;20278;-35
2022/11/01 01:15:25;;;;;;;6.67;3.30;;;;;;;15.45;100.00;100799.81;5074672;28;20036;-35
2022/11/01 01:17:51;;;;;;;11.27;3.73;;;;;;;15.42;100.00;100773.94;5074789;28;20293;-35
2022/11/01 01:20:17;;;;;;;8.00;3.72;;;;;;;15.44;100.00;100776.38;5074032;28;20297;-35
2022/11/01 01:22:42;;;;;;;11.13;4.30;;;;;;;15.44;100.00;100781.84;5074450;28;20115;-35
2022/11/01 01:25:08;;;;;;;;;;;;;;;15.45;100.00;100781.56;5074427;28;20029;-35
2022/11/01 01:27:33;;;;;;;7.38;3.33;;;;;;;15.49;100.00;100781.84;5074398;28;19957;-34
2022/11/01 01:29:59;;;;;;;;;;;;;;;15.48;100.00;100784.84;5074019;28;20547;-35
2022/11/01 01:32:24;;;;;;;5.17;3.43;;;;;;;15.45;100.00;100772.56;5073851;28;19908;-36
2022/11/01 01:34:50;;;;;;;8.63;3.40;;;;;;;15.47;100.00;100775.88;5073439;28;20400;-35
2022/11/01 01:37:15;;;;;;;;;;;;;;;15.51;100.00;100792.47;5074968;28;20028;-35
2022/11/01 01:39:41;;;;;;;6.63;3.55;;;;;;;15.53;100.00;100782.97;5073568;28;20269;-34
2022/11/01 01:42:25;;;;;;;;;;;;;;;15.56;100.00;100781.59;5073730;28;20051;-35
2022/11/01 01:45:18;;;;;;;8.73;3.58;;;;;;;15.60;100.00;100786.25;5089578;28;20006;-36
2022/11/01 01:47:47;;;;;;;8.85;5.07;;;;;;;15.63;100.00;100787.66;5073236;28;20029;-34
2022/11/01 01:50:18;;;;;;;9.30;3.85;;;;;;;15.63;100.00;100780.31;5073134;28;20029;-34
2022/11/01 01:53:02;;;;;;;10.38;4.88;;;;;;;15.65;100.00;100774.59;5073963;28;20064;-35
2022/11/01 01:55:34;;;;;;;7.28;3.63;;;;;;;15.64;100.00;100772.97;5073738;28;20028;-34
2022/11/01 01:57:59;;;;;;;7.53;3.47;;;;;;;15.62;100.00;100762.31;5073836;28;20044;-35
2022/11/01 02:00:25;;;;;;;12.70;4.20;;;;;;;15.70;100.00;100764.53;5073046;28;20032;-35
2022/11/01 02:02:51;;;;;;;;;;;;;;;15.72;100.00;100760.75;5073961;28;20027;-35
2022/11/01 02:05:55;;;;;;;7.33;3.43;;;;;;;15.79;100.00;100772.19;5073281;28;19909;-36
2022/11/01 02:08:26;;;;;;;10.07;3.30;;;;;;;15.79;100.00;100764.03;5071674;28;20644;-35
2022/11/01 02:10:58;;;;;;;6.80;3.55;;;;;;;15.69;100.00;100760.16;5073689;28;20032;-35
2022/11/01 02:13:24;;;;;;;7.65;3.53;;;;;;;15.77;100.00;100758.84;5073394;28;20467;-35
2022/11/01 02:16:27;;;;;;;8.57;3.50;;;;;;;15.81;100.00;100753.66;5073112;28;20116;-35
2022/11/01 02:18:58;;;;;;;8.88;3.58;;;;;;;15.82;100.00;100768.94;5073321;28;20388;-35
2022/11/01 02:21:41;;;;;;;9.02;3.75;;;;;;;15.78;100.00;100770.56;5072744;28;20056;-35
2022/11/01 02:24:18;;;;;;;7.97;3.70;;;;;;;15.83;100.00;100776.03;5073481;28;20024;-40
2022/11/01 02:27:11;;;;;;;6.05;3.10;;;;;;;15.83;100.00;100773.31;5072966;28;20039;-35
2022/11/01 02:30:05;;;;;;;10.95;3.40;;;;;;;15.85;100.00;100771.13;5073102;28;20090;-35
2022/11/01 02:33:06;;;;;;;7.55;3.75;;;;;;;15.85;100.00;100771.94;5073081;28;20024;-35
2022/11/01 02:35:55;;;;;;;7.53;3.42;;;;;;;15.89;100.00;100774.97;5050352;28;20120;-35
2022/11/01 02:38:35;;;;;;;7.10;3.17;;;;;;;15.86;100.00;100778.22;5050814;28;20110;-35
2022/11/01 02:41:11;;;;;;;10.75;3.92;;;;;;;15.83;100.00;100778.75;5050667;28;20033;-35
2022/11/01 02:43:50;;;;;;;9.27;3.95;;;;;;;15.81;100.00;100791.81;5050301;28;20120;-35
2022/11/01 02:49:03;;;;;;;8.70;3.30;;;;;;;15.63;100.00;100765.84;5050245;28;20098;-35
2022/11/01 02:51:30;;;;;;;8.23;3.33;;;;;;;15.79;100.00;100783.09;5050183;28;20053;-35
2022/11/01 02:54:00;;;;;;;8.15;3.40;;;;;;;15.78;100.00;100786.94;5050325;28;20497;-35
2022/11/01 02:56:25;;;;;;;9.35;3.53;;;;;;;15.78;100.00;100776.03;5050151;28;20059;-35
2022/11/01 02:58:51;;;;;;;8.77;3.25;;;;;;;15.75;100.00;100780.09;5050510;28;20041;-35
2022/11/01 03:01:21;;;;;;;;;;;;;;;15.74;100.00;100783.09;5050536;28;20113;-35
2022/11/01 03:03:50;;;;;;;6.43;3.10;;;;;;;15.74;100.00;100785.81;5050138;28;19995;-35
2022/11/01 03:06:33;;;;;;;9.63;3.55;;;;;;;15.73;100.00;100795.09;5050185;28;20076;-35
2022/11/01 03:09:03;;;;;;;9.60;3.40;;;;;;;15.70;100.00;100790.97;5050432;28;20135;-35
2022/11/01 03:11:54;;;;;;;5.82;3.20;;;;;;;15.66;100.00;100801.59;5050650;28;20124;-35
2022/11/01 03:14:35;;;;;;;11.52;3.20;;;;;;;15.69;100.00;100802.97;5072480;28;20033;-35
2022/11/01 03:17:31;;;;;;;10.43;3.50;;;;;;;15.66;100.00;100808.94;5073041;28;20034;-35
2022/11/01 03:20:00;;;;;;;6.18;3.10;;;;;;;15.63;100.00;100817.63;5072335;28;20029;-35
2022/11/01 03:22:43;;;;;;;10.20;3.20;;;;;;;15.62;100.00;100811.38;5072556;28;20523;-35
2022/11/01 03:28:22;;;;;;;5.20;2.72;;;;;;;15.60;100.00;100829.06;5072450;28;20047;-35
2022/11/01 03:31:06;;;;;;;6.68;3.83;;;;;;;15.58;100.00;100834.78;5072622;28;20025;-35
2022/11/01 03:33:36;;;;;;;4.80;2.25;;;;;;;15.63;98.90;100837.56;5072151;28;20059;-35
2022/11/01 03:36:06;;;;;;;5.85;2.25;;;;;;;15.61;98.35;100836.97;5072641;28;20162;-35
2022/11/01 03:38:35;;;;;;;7.93;2.65;;;;;;;15.51;97.35;100833.34;5072888;28;20024;-35
2022/11/01 03:41:03;;;;;;;5.05;1.92;;;;;;;15.58;94.19;100870.22;5072162;28;20025;-35
2022/11/01 03:43:31;;;;;;;5.00;2.20;;;;;;;15.60;93.07;100862.56;5071812;28;20036;-35
2022/11/01 03:45:57;;;;;;;3.05;1.33;;;;;;;15.61;90.66;100869.66;5072560;28;20029;-35
2022/11/01 03:48:22;;;;;;;4.32;1.50;;;;;;;15.57;89.93;100856.84;5072063;28;20357;-35
2022/11/01 03:50:49;;;;;;;;;;;;;;;15.54;90.68;100869.09;5072878;28;20028;-35
2022/11/01 03:53:14;;;;;;;3.80;1.38;;;;;;;15.51;87.04;100874.25;5072900;28;19912;-35
2022/11/01 03:55:40;;;;;;;3.63;1.00;;;;;;;15.48;86.33;100880.22;5071770;28;20025;-35
2022/11/01 03:58:06;;;;;;;;;;;;;;;15.46;88.53;100891.38;5074203;28;20087;-35
2022/11/01 04:00:40;;;;;;;3.40;1.30;;;;;;;15.32;85.37;100877.38;5076082;28;19908;-35
2022/11/01 04:03:06;;;;;;;2.80;1.20;;;;;;;15.27;85.28;100901.03;5075515;28;20032;-35
2022/11/01 04:05:33;;;;;;;3.10;0.98;;;;;;;15.27;83.82;100901.88;5075479;28;20029;-35
2022/11/01 04:07:58;;;;;;;2.38;1.10;;;;;;;15.23;84.06;100916.28;5075524;28;20376;-35
2022/11/01 04:10:26;;;;;;;4.10;1.08;;;;;;;15.15;80.62;100912.94;5076152;28;20107;-35
2022/11/01 04:12:52;;;;;;;2.25;0.85;;;;;;;15.15;80.50;100948.34;5075853;28;20074;-35
2022/11/01 04:20:54;;;;;;;3.92;0.98;;;;;;;15.00;78.48;100953.66;5074987;28;20097;-35
2022/11/01 04:23:19;;;;;;;3.33;0.68;;;;;;;14.87;78.98;100957.59;5075257;28;20032;-35
2022/11/01 04:25:48;;;;;;;4.20;0.82;;;;;;;14.88;78.98;100974.75;5074890;28;20028;-35
2022/11/01 04:28:14;;;;;;;5.63;0.80;;;;;;;14.84;78.47;100971.75;5074442;28;20394;-35
2022/11/01 04:30:40;;;;;;;2.97;0.77;;;;;;;14.81;78.56;100985.06;5075000;28;20021;-35
2022/11/01 04:33:05;;;;;;;4.93;0.73;;;;;;;14.73;78.69;100991.75;5075508;28;20097;-35
2022/11/01 04:35:30;;;;;;;2.33;0.80;;;;;;;14.67;79.06;100990.06;5075012;28;20036;-34
2022/11/01 04:37:56;;;;;;;;;;;;;;;14.66;80.22;100988.41;5075659;28;20034;-35
2022/11/01 04:40:22;;;;;;;2.10;0.73;;;;;;;14.52;79.75;100984.44;5074863;28;19995;-35
2022/11/01 04:42:47;;;;;;;2.57;0.50;;;;;;;14.48;80.16;101010.50;5075173;28;20071;-34
2022/11/01 04:45:12;;;;;;;1.73;0.70;;;;;;;14.41;80.74;100997.06;5075539;28;20036;-35
2022/11/01 04:47:38;;;;;;;2.35;0.80;;;;;;;14.36;80.87;101005.16;5075079;28;20419;-35
2022/11/01 04:50:03;;;;;;;2.13;0.57;;;;;;;14.35;80.72;101017.13;5074366;28;20024;-35
2022/11/01 04:52:29;;;;;;;4.28;0.90;;;;;;;14.28;81.29;101014.56;5075113;28;20173;-34
2022/11/01 04:54:54;;;;;;;;;;;;;;;14.30;81.31;101022.47;5075265;28;20046;-34
2022/11/01 04:57:23;;;;;;;3.53;0.73;;;;;;;14.22;81.29;101036.53;5074820;28;19951;-35
2022/11/01 04:59:52;;;;;;;1.45;0.52;;;;;;;14.15;81.48;101042.13;5074466;28;20114;-35
2022/11/01 05:02:19;;;;;;;1.80;0.68;;;;;;;14.14;81.31;101052.19;5074660;28;20107;-35
2022/11/01 05:04:44;;;;;;;3.17;0.68;;;;;;;14.11;81.25;101063.56;5075196;28;20028;-34
2022/11/01 05:07:10;;;;;;;;;;;;;;;14.11;81.63;101069.00;5074908;28;20416;-35
2022/11/01 05:09:35;;;;;;;4.10;1.02;;;;;;;14.09;80.70;101075.75;5073685;28;19956;-35
2022/11/01 05:12:00;;;;;;;6.53;0.90;;;;;;;14.06;80.67;101079.81;5073966;28;20421;-34
2022/11/01 05:14:26;;;;;;;2.17;0.80;;;;;;;14.03;81.84;101082.19;5074200;28;20044;-35
2022/11/01 05:16:54;;;;;;;3.27;0.80;;;;;;;13.99;81.65;101083.75;5074188;28;20040;-35
2022/11/01 05:19:19;;;;;;;3.97;0.80;;;;;;;13.87;81.22;101064.81;5074381;28;20267;-34
2022/11/01 05:21:45;;;;;;;6.00;1.07;;;;;;;13.89;80.14;101076.25;5074504;28;20353;-34
2022/11/01 05:24:10;;;;;;;2.10;0.77;;;;;;;13.84;79.54;101101.47;5073999;28;20457;-34
2022/11/01 05:26:35;;;;;;;10.57;1.83;;;;;;;13.81;78.65;101090.25;5073702;28;20033;-35
2022/11/01 05:29:00;;;;;;;6.13;0.83;;;;;;;13.77;78.72;101105.44;5074393;28;20279;-35
2022/11/01 05:31:26;;;;;;;4.37;1.27;;;;;;;13.65;78.60;101100.88;5073884;28;20381;-34
2022/11/01 05:33:51;;;;;;;5.50;0.83;;;;;;;13.68;78.47;101109.63;5072228;28;20473;-34
2022/11/01 05:36:16;;;;;;;2.33;0.70;;;;;;;13.67;78.41;101105.25;5073448;28;20301;-34
2022/11/01 05:38:42;;;;;;;2.30;0.73;;;;;;;13.60;78.26;101095.34;5073802;28;20082;-34
2022/11/01 05:41:07;;;;;;;3.40;0.73;;;;;;;13.63;78.34;101113.88;5073736;28;20029;-35
2022/11/01 05:43:32;;;;;;;6.97;0.90;;;;;;;13.56;77.58;101093.34;5106301;28;20731;-35
2022/11/01 05:45:58;;;;;;;2.75;0.82;;;;;;;13.56;78.37;101118.63;5073968;28;20266;-34
2022/11/01 05:48:23;;;;;;;4.40;0.97;;;;;;;13.44;78.55;101104.28;5073963;28;20105;-34
2022/11/01 05:50:48;;;;;;;4.13;1.10;;;;;;;13.39;79.13;101106.91;5073684;28;20466;-34
2022/11/01 05:53:14;;;;;;;5.83;0.87;;;;;;;13.46;78.97;101117.63;5073695;28;20070;-35
2022/11/01 05:55:40;;;;;;;3.28;0.85;;;;;;;13.38;80.58;101127.00;5106205;28;20025;-34
2022/11/01 05:58:05;;;;;;;3.33;0.98;;;;;;;13.39;80.28;101132.19;5073716;28;20067;-35
2022/11/01 06:00:32;;;;;;;2.33;0.80;;;;;;;13.36;80.96;101140.00;5073396;28;20052;-34
2022/11/01 06:02:58;;;;;;;3.17;1.05;;;;;;;13.32;81.60;101131.53;5074143;28;20029;-35
2022/11/01 06:05:24;;;;;;;6.55;0.98;;;;;;;13.27;81.89;101147.69;5073791;28;20032;-34
2022/11/01 06:07:49;;;;;;;;;;;;;;;13.29;81.89;101131.19;5074023;28;20107;-35
2022/11/01 06:10:15;;;;;;;5.07;1.00;;;;;;;13.23;80.36;101138.41;5073081;28;19997;-35
2022/11/01 06:12:40;;;;;;;4.65;0.95;;;;;;;13.20;79.08;101147.00;5073644;28;20032;-35
2022/11/01 06:15:06;;;;;;;5.13;1.13;;;;;;;13.18;78.14;101170.03;5073851;28;20024;-35
2022/11/01 06:17:31;;;;;;;4.72;1.20;;;;;;;13.10;77.17;101153.03;5073523;28;20028;-34
2022/11/01 06:19:57;;;;;;;6.63;1.50;;;;;;;13.18;75.58;101170.03;5073232;28;20039;-34
2022/11/01 06:22:22;;;;;;;5.15;1.58;;;;;;;13.20;75.07;101173.31;5072917;28;20458;-34
2022/11/01 06:24:47;;;;;;;7.93;1.53;;;;;;;13.19;75.00;101183.34;5072009;28;20028;-34
2022/11/01 06:27:13;;;;;;;10.47;1.47;;;;;;;13.15;75.72;101179.47;5073345;28;20711;-34
2022/11/01 06:29:38;;;;;;;4.63;1.27;;;;;;;13.10;76.12;101182.91;5073386;28;20124;-34
2022/11/01 06:32:03;;;;;;;3.33;1.17;;;;;;;13.09;76.29;101181.25;5073858;28;20123;-35
2022/11/01 06:34:29;;;;;;;4.10;1.33;;;;;;;13.08;75.90;101185.03;5072782;28;20392;-34
2022/11/01 06:36:55;;;;;;;7.25;1.52;;;;;;;13.07;76.39;101199.66;5073237;28;20059;-35
2022/11/01 06:39:20;;;;;;;6.25;1.55;;;;;;;13.07;76.44;101205.09;5073380;28;20054;-35
2022/11/01 06:41:45;;;;;;;13.07;2.13;;;;;;;13.01;77.67;101206.06;5072905;28;20025;-35
2022/11/01 06:44:11;;;;;;;6.80;1.10;;;;;;;12.99;78.23;101212.78;5072774;28;20259;-34
2022/11/01 06:46:36;;;;;;;5.72;1.45;;;;;;;12.95;78.74;101214.31;5072830;28;20056;-35
2022/11/01 06:49:01;;;;;;;3.28;1.10;;;;;;;12.88;78.58;101206.28;5072690;28;20105;-34
2022/11/01 06:51:28;;;;;;;6.90;1.17;;;;;;;12.92;79.11;101215.63;5072645;28;20030;-34
2022/11/01 06:53:53;;;;;;;6.65;1.30;;;;;;;12.90;80.21;101215.03;5073425;28;20112;-34
2022/11/01 06:56:18;;;;;;;7.93;1.47;;;;;;;12.88;80.43;101219.84;5072982;28;20099;-35
2022/11/01 06:58:47;;;;;;;6.57;1.08;;;;;;;12.79;80.78;101214.00;5073514;28;20078;-35
2022/11/01 07:01:13;;;;;;;6.63;1.30;;;;;;;12.82;81.26;101220.81;5073136;28;20074;-35
2022/11/01 07:03:38;;;;;;;7.82;1.15;;;;;;;12.82;81.68;101220.81;5073124;28;20433;-35
2022/11/01 07:06:03;;;;;;;5.07;1.40;;;;;;;12.76;82.17;101238.88;5072834;28;20472;-35
2022/11/01 07:08:29;;;;;;;7.13;1.70;;;;;;;12.76;81.47;101243.47;5072629;28;20136;-35
2022/11/01 07:10:54;;;;;;;6.67;1.50;;;;;;;12.77;81.61;101242.41;5072866;28;20036;-35
2022/11/01 07:13:19;;;;;;;6.35;1.50;;;;;;;12.78;81.32;101246.78;5072767;28;20056;-35
2022/11/01 07:15:45;;;;;;;9.07;1.52;;;;;;;12.73;80.69;101242.03;5072714;28;20027;-35
2022/11/01 07:18:10;;;;;;;5.83;1.47;;;;;;;12.82;80.60;101261.53;5072500;28;20540;-35
2022/11/01 07:20:40;;;;;;;6.32;1.58;;;;;;;12.83;81.07;101271.31;5072689;28;20025;-35
2022/11/01 07:23:10;;;;;;;5.55;1.52;;;;;;;12.76;81.32;101262.47;5073003;28;20028;-35
2022/11/01 07:25:35;;;;;;;4.45;1.15;;;;;;;12.79;81.05;101279.13;5073389;28;20032;-35
2022/11/01 07:28:00;;;;;;;9.70;2.25;;;;;;;12.81;81.14;101284.31;5073337;28;20139;-35
2022/11/01 07:30:26;;;;;;;7.60;1.60;;;;;;;12.84;81.14;101283.84;5072632;28;20052;-35
2022/11/01 07:32:56;;;;;;;7.55;1.77;;;;;;;12.80;80.79;101301.66;5073366;28;20549;-35
2022/11/01 07:35:22;;;;;;;5.80;1.67;;;;;;;12.72;80.78;101277.56;5076451;28;20105;-35
2022/11/01 07:37:47;;;;;;;9.52;1.92;;;;;;;12.86;80.43;101308.84;5076428;28;20154;-35
2022/11/01 07:40:13;;;;;;;7.87;1.87;;;;;;;12.83;80.79;101301.16;5076574;28;20043;-35
2022/11/01 07:42:42;;;;;;;5.75;1.33;;;;;;;12.85;80.30;101315.34;5075135;28;20035;-35
2022/11/01 07:45:09;;;;;;;13.70;2.30;;;;;;;12.71;80.67;101286.78;5076211;28;20025;-35
2022/11/01 07:47:35;;;;;;;8.23;2.03;;;;;;;12.88;80.36;101314.84;5076158;28;20130;-35
2022/11/01 07:50:00;;;;;;;8.15;1.73;;;;;;;12.80;80.83;101304.38;5076793;28;20029;-35
2022/11/01 07:52:26;;;;;;;5.65;1.60;;;;;;;12.90;80.81;101320.91;5076606;28;20082;-35
2022/11/01 07:54:51;;;;;;;6.20;1.67;;;;;;;12.91;80.47;101325.25;5076452;28;20032;-35
2022/11/01 07:57:16;;;;;;;6.77;1.70;;;;;;;12.81;79.69;101319.59;5076368;28;20036;-35
2022/11/01 07:59:42;;;;;;;11.25;2.33;;;;;;;12.85;79.21;101320.78;5075916;28;20051;-34
2022/11/01 08:02:08;;;;;;;8.60;2.07;;;;;;;12.89;79.59;101324.69;5075704;28;20545;-35
2022/11/01 08:04:33;;;;;;;7.18;1.85;;;;;;;12.90;80.45;101339.91;5076680;28;20027;-34
2022/11/01 08:06:59;;;;;;;8.70;2.13;;;;;;;12.91;78.61;101330.69;5075576;28;20516;-35
2022/11/01 08:09:24;;;;;;;10.77;2.60;;;;;;;12.97;78.55;101339.78;5075900;28;20048;-35
2022/11/01 08:11:50;;;;;;;7.05;1.88;;;;;;;12.99;79.01;101340.38;5075441;28;20131;-35
2022/11/01 08:14:16;;;;;;;10.93;2.13;;;;;;;12.98;79.17;101336.84;5076560;28;20119;-35
2022/11/01 08:16:41;;;;;;;9.10;1.93;;;;;;;13.00;78.86;101345.56;5075979;28;20082;-34
2022/11/01 08:19:06;;;;;;;8.17;2.43;;;;;;;13.07;78.02;101353.59;5076148;28;20727;-35
2022/11/01 08:21:32;;;;;;;13.97;2.23;;;;;;;12.93;78.12;101338.59;5075614;28;20449;-35
2022/11/01 08:23:57;;;;;;;9.93;2.30;;;;;;;13.01;78.18;101336.34;5075628;28;20386;-34
2022/11/01 08:26:22;;;;;;;8.40;1.77;;;;;;;13.10;77.82;101353.97;5075813;28;20025;-34
2022/11/01 08:28:48;;;;;;;11.68;2.15;;;;;;;13.12;77.85;101359.97;5075474;28;20032;-34
2022/11/01 08:31:13;;;;;;;7.50;1.83;;;;;;;13.15;78.45;101364.94;5074234;28;20024;-34
2022/11/01 08:33:38;;;;;;;7.53;1.80;;;;;;;13.17;77.56;101367.41;5075122;28;20727;-35
2022/11/01 08:36:04;;;;;;;7.60;1.90;;;;;;;13.25;77.21;101363.56;5075730;28;20346;-35
2022/11/01 08:38:29;;;;;;;10.60;2.05;;;;;;;13.29;77.69;101365.56;5075894;28;20483;-35
2022/11/01 08:40:54;;;;;;;11.55;2.70;;;;;;;13.24;76.69;101367.34;5075284;28;20025;-35
2022/11/01 08:43:20;;;;;;;10.03;2.47;;;;;;;13.36;76.48;101373.59;5075184;28;20465;-34
2022/11/01 08:45:46;;;;;;;10.70;2.30;;;;;;;13.32;76.86;101375.13;5075158;28;20473;-35
2022/11/01 08:48:12;;;;;;;7.68;1.88;;;;;;;13.34;76.70;101367.56;5075045;28;20029;-34
2022/11/01 08:50:37;;;;;;;13.55;2.67;;;;;;;13.40;76.42;101356.59;5075067;28;20039;-35
2022/11/01 08:53:08;;;;;;;13.93;2.78;;;;;;;13.34;77.06;101373.00;5075842;28;20025;-34
2022/11/01 08:55:35;;;;;;;10.15;1.83;;;;;;;13.41;76.40;101376.41;5074700;28;20111;-35
2022/11/01 08:58:00;;;;;;;9.18;2.35;;;;;;;13.40;75.78;101363.91;5075409;28;20039;-35
2022/11/01 09:00:26;;;;;;;9.98;2.35;;;;;;;13.55;75.71;101390.59;5075112;28;20025;-35
2022/11/01 09:02:51;;;;;;;9.15;2.25;;;;;;;13.58;75.46;101392.84;5075075;28;20032;-35
2022/11/01 09:05:17;;;;;;;12.32;2.17;;;;;;;13.61;75.34;101385.03;5074756;28;20032;-35
2022/11/01 09:07:43;;;;;;;10.70;2.95;;;;;;;13.65;74.44;101401.69;5075087;28;20028;-35
2022/11/01 09:10:09;;;;;;;11.05;2.17;;;;;;;13.67;74.93;101393.31;5075361;28;20048;-35
2022/11/01 09:12:35;;;;;;;9.57;2.95;;;;;;;13.67;74.61;101387.88;5074847;28;20044;-35
2022/11/01 09:15:00;;;;;;;11.48;2.40;;;;;;;13.67;74.39;101391.44;5074716;28;20445;-35
2022/11/01 09:17:25;;;;;;;11.33;2.23;;;;;;;13.68;74.16;101384.91;5074468;28;20025;-35
2022/11/01 09:19:51;;;;;;;11.30;2.20;;;;;;;13.70;74.20;101384.66;5075046;28;20028;-35
2022/11/01 09:22:16;;;;;;;10.03;2.20;;;;;;;13.72;74.02;101391.53;5074729;28;20261;-35
2022/11/01 09:24:41;;;;;;;9.70;2.20;;;;;;;13.76;75.09;101389.16;5074191;28;20115;-35
2022/11/01 09:27:10;;;;;;;10.10;2.47;;;;;;;13.78;73.94;101395.19;5074367;28;20068;-35
2022/11/01 09:29:35;;;;;;;12.00;2.45;;;;;;;13.82;74.52;101401.81;5074131;28;20294;-35
2022/11/01 09:32:01;;;;;;;9.45;2.22;;;;;;;13.82;74.30;101396.38;5074090;28;20035;-35
2022/11/01 09:34:26;;;;;;;10.38;2.00;;;;;;;13.94;74.15;101415.38;5074527;28;20040;-35
2022/11/01 09:36:51;;;;;;;10.47;2.07;;;;;;;13.98;74.68;101406.50;5074814;28;20086;-34
2022/11/01 09:39:20;;;;;;;10.80;3.20;;;;;;;14.00;74.58;101415.22;5074974;28;20177;-35
2022/11/01 09:41:53;;;;;;;11.32;2.88;;;;;;;14.04;75.28;101427.28;5074144;28;20075;-34
2022/11/01 09:44:33;;;;;;;13.23;2.33;;;;;;;14.11;74.99;101427.16;5074742;28;20037;-35
2022/11/01 09:47:10;;;;;;;10.00;2.15;;;;;;;14.11;74.27;101432.59;5074267;28;20097;-35
2022/11/01 09:49:39;;;;;;;12.73;2.20;;;;;;;14.10;74.52;101431.78;5074656;28;20417;-35
2022/11/01 09:52:06;;;;;;;9.60;2.53;;;;;;;14.21;74.01;101448.31;5072618;28;20040;-35
2022/11/01 09:54:31;;;;;;;6.60;1.70;;;;;;;14.18;73.30;101453.13;5073793;28;20109;-35
2022/11/01 09:57:20;;;;;;;12.05;2.20;;;;;;;14.23;74.51;101470.63;5073181;28;20029;-35
2022/11/01 10:00:12;;;;;;;12.15;2.70;;;;;;;14.23;73.60;101462.47;5073292;28;20029;-35
2022/11/01 10:02:40;;;;;;;10.73;2.03;;;;;;;14.26;74.06;101468.28;5074211;28;20025;-35
2022/11/01 10:05:16;;;;;;;11.68;2.28;;;;;;;14.24;74.02;101464.13;5073947;28;20459;-35
2022/11/01 10:08:09;;;;;;;10.38;2.50;;;;;;;14.30;74.05;101479.47;5073190;28;20483;-35
2022/11/01 10:11:00;;;;;;;9.82;3.30;;;;;;;14.40;73.55;101474.28;5074357;28;20036;-35
2022/11/01 10:13:47;;;;;;;10.32;2.25;;;;;;;14.43;72.99;101481.94;5073548;28;20025;-35
2022/11/01 10:16:41;;;;;;;9.15;1.85;;;;;;;14.47;74.30;101480.41;5073774;28;20166;-35
2022/11/01 10:19:13;;;;;;;12.00;2.40;;;;;;;14.45;73.72;101466.22;5073129;28;20421;-35
2022/11/01 10:21:47;;;;;;;12.70;2.50;;;;;;;14.58;73.34;101479.56;5073073;28;20028;-35
2022/11/01 10:24:28;;;;;;;14.73;2.60;;;;;;;14.53;73.40;101476.72;5073621;28;20123;-35
2022/11/01 10:27:03;;;;;;;11.88;2.40;;;;;;;14.58;73.13;101482.28;5073279;28;20028;-35
2022/11/01 10:29:42;;;;;;;13.45;2.85;;;;;;;14.71;73.75;101480.34;5072838;28;20032;-35
2022/11/01 10:32:35;;;;;;;10.55;2.47;;;;;;;14.67;73.09;101466.38;5073285;28;20056;-35
2022/11/01 10:35:11;;;;;;;9.55;2.20;;;;;;;14.81;72.97;101484.09;5072749;28;20052;-35
2022/11/01 10:37:56;;;;;;;14.25;2.72;;;;;;;14.88;72.34;101492.94;5073297;28;20035;-35
2022/11/01 10:40:26;;;;;;;7.32;1.90;;;;;;;14.83;72.20;101475.66;5074014;28;20093;-35
2022/11/01 10:42:51;;;;;;;13.25;2.35;;;;;;;14.95;72.63;101492.78;5073797;28;20381;-35
2022/11/01 10:45:19;;;;;;;11.83;2.53;;;;;;;14.97;72.07;101484.38;5073200;28;20044;-35
2022/11/01 10:47:55;;;;;;;14.00;2.42;;;;;;;14.92;72.13;101482.38;5073096;28;20278;-35
2022/11/01 10:50:23;;;;;;;10.23;2.33;;;;;;;15.09;72.09;101485.16;5072941;28;20031;-35
2022/11/01 10:53:10;;;;;;;14.85;2.33;;;;;;;15.13;72.88;101473.50;5072953;28;20089;-35
2022/11/01 10:55:41;;;;;;;;;;;;;;;15.31;72.02;101482.50;5073748;28;20028;-35
2022/11/01 10:58:17;;;;;;;7.93;2.30;;;;;;;15.26;71.28;101487.88;5073075;28;19908;-35
2022/11/01 11:00:43;;;;;;;10.85;2.53;;;;;;;15.26;70.90;101487.88;5073551;28;20031;-35
2022/11/01 11:03:20;;;;;;;10.52;2.83;;;;;;;15.23;70.84;101493.84;5073514;28;20032;-35
2022/11/01 11:05:47;;;;;;;10.40;2.63;;;;;;;15.18;70.43;101476.31;5073812;28;20031;-35
2022/11/01 11:08:15;;;;;;;11.88;2.45;;;;;;;15.36;71.42;101493.50;5076477;28;20055;-35
2022/11/01 11:10:43;;;;;;;10.20;2.13;;;;;;;15.44;70.88;101493.09;5076927;28;20074;-35
2022/11/01 11:13:08;;;;;;;9.57;2.25;;;;;;;15.45;69.43;101498.28;5077336;28;20115;-35
2022/11/01 11:15:48;;;;;;;8.80;2.10;;;;;;;15.53;70.06;101493.50;5077058;28;20071;-35
2022/11/01 11:18:28;;;;;;;11.43;2.65;;;;;;;15.59;70.03;101482.44;5077213;28;20029;-35
2022/11/01 11:21:00;;;;;;;9.57;2.33;;;;;;;15.56;70.13;101485.63;5077107;28;20028;-35
2022/11/01 11:23:33;;;;;;;7.90;2.10;;;;;;;15.59;70.15;101490.59;5076449;28;20024;-35
2022/11/01 11:26:04;;;;;;;9.60;2.10;;;;;;;15.58;69.92;101469.06;5076496;28;20028;-35
2022/11/01 11:28:33;;;;;;;6.18;2.10;;;;;;;15.61;69.83;101468.53;5077405;28;20111;-35
2022/11/01 11:31:14;;;;;;;12.57;2.80;;;;;;;15.70;70.50;101469.81;5076655;28;20093;-35
2022/11/01 11:33:49;;;;;;;8.77;2.92;;;;;;;15.61;70.02;101446.72;5077309;28;20111;-35
2022/11/01 11:36:14;;;;;;;8.02;1.90;;;;;;;15.71;68.86;101476.91;5076815;28;20036;-35
2022/11/01 11:38:43;;;;;;;7.53;2.22;;;;;;;15.79;69.17;101487.41;5076775;28;20388;-35
2022/11/01 11:41:25;;;;;;;6.55;1.52;;;;;;;15.81;68.86;101476.22;5075947;28;20447;-35
2022/11/01 11:43:51;;;;;;;9.10;2.25;;;;;;;15.86;69.83;101479.88;5076132;28;20112;-35